createdAt,value
2022-12-01T00:03:26.286Z,74.93
2022-12-01T00:08:29.383Z,74.06
2022-12-01T00:13:32.198Z,74.69
2022-12-01T00:18:34.311Z,75.37
2022-12-01T00:23:36.567Z,74.78
2022-12-01T00:28:39.231Z,74.94
2022-12-01T00:33:41.369Z,74.84
2022-12-01T00:38:43.658Z,76.45
2022-12-01T00:43:45.721Z,78.24
2022-12-01T00:48:48.182Z,79.44
2022-12-01T00:53:50.364Z,80.26
2022-12-01T00:58:52.545Z,80.89
2022-12-01T01:03:54.643Z,81.27
2022-12-01T01:08:56.742Z,80.99
2022-12-01T01:13:59.611Z,80.94
2022-12-01T01:19:01.693Z,81.35
2022-12-01T01:24:04.000Z,81.77
2022-12-01T01:29:07.783Z,82.03
2022-12-01T01:34:09.876Z,81.16
2022-12-01T01:39:12.009Z,80.92
2022-12-01T01:44:45.323Z,78.80
2022-12-01T01:49:48.884Z,77.42
2022-12-01T01:54:53.921Z,77.87
2022-12-01T02:00:02.255Z,78.09
2022-12-01T02:05:10.951Z,77.41
2022-12-01T02:10:14.718Z,78.63
2022-12-01T02:15:19.849Z,80.58
2022-12-01T02:20:59.657Z,81.63
2022-12-01T02:26:29.701Z,82.41
2022-12-01T02:32:05.211Z,82.84
2022-12-01T02:37:13.118Z,83.49
2022-12-01T02:42:40.284Z,84.27
2022-12-01T02:47:44.841Z,84.83
2022-12-01T02:52:47.731Z,85.01
2022-12-01T02:57:49.801Z,85.34
2022-12-01T03:03:26.753Z,85.57
2022-12-01T03:08:34.603Z,85.45
2022-12-01T03:14:11.345Z,85.77
2022-12-01T03:19:23.098Z,85.91
2022-12-01T03:24:29.446Z,86.05
2022-12-01T03:29:43.491Z,86.26
2022-12-01T03:34:59.592Z,85.65
2022-12-01T03:40:06.392Z,85.59
2022-12-01T03:45:16.147Z,85.52
2022-12-01T03:50:18.970Z,85.35
2022-12-01T03:55:24.847Z,84.67
2022-12-01T04:00:27.098Z,83.96
2022-12-01T04:05:29.856Z,83.38
2022-12-01T04:10:33.102Z,83.34
2022-12-01T04:15:35.181Z,83.64
2022-12-01T04:20:37.318Z,83.61
2022-12-01T04:25:39.387Z,83.25
2022-12-01T04:30:41.459Z,83.92
2022-12-01T04:35:43.567Z,84.73
2022-12-01T04:40:45.649Z,85.83
2022-12-01T04:45:48.369Z,86.32
2022-12-01T04:50:50.540Z,86.98
2022-12-01T04:55:52.651Z,87.17
2022-12-01T05:00:54.933Z,87.05
2022-12-01T05:06:09.362Z,86.24
2022-12-01T05:11:13.389Z,85.16
2022-12-01T05:16:22.317Z,85.84
2022-12-01T05:21:24.501Z,86.35
2022-12-01T05:26:26.599Z,86.71
2022-12-01T05:31:28.877Z,86.60
2022-12-01T05:36:31.575Z,87.11
2022-12-01T05:41:33.670Z,87.04
2022-12-01T05:46:35.769Z,87.27
2022-12-01T05:51:37.851Z,87.68
2022-12-01T05:56:39.964Z,87.89
2022-12-01T06:01:42.141Z,88.16
2022-12-01T06:06:44.570Z,88.20
2022-12-01T06:11:51.220Z,88.26
2022-12-01T06:16:54.572Z,89.14
2022-12-01T06:22:03.698Z,90.39
2022-12-01T06:27:06.064Z,91.18
2022-12-01T06:32:08.207Z,91.97
2022-12-01T06:37:11.427Z,92.54
2022-12-01T06:42:13.596Z,92.56
2022-12-01T06:47:16.019Z,92.78
2022-12-01T06:52:18.175Z,92.87
2022-12-01T06:57:20.403Z,92.62
2022-12-01T07:02:23.169Z,92.67
2022-12-01T07:07:25.485Z,92.36
2022-12-01T07:12:31.607Z,91.98
2022-12-01T07:17:34.701Z,91.59
2022-12-01T07:22:36.797Z,90.99
2022-12-01T07:27:38.889Z,90.65
2022-12-01T07:32:40.998Z,90.07
2022-12-01T07:37:43.089Z,89.23
2022-12-01T07:42:45.205Z,88.09
2022-12-01T07:47:47.298Z,87.63
2022-12-01T07:52:50.927Z,86.47
2022-12-01T07:57:53.683Z,85.56
2022-12-01T08:02:55.797Z,84.48
2022-12-01T08:07:57.916Z,83.98
2022-12-01T08:13:00.147Z,83.70
2022-12-01T08:18:02.503Z,83.34
2022-12-01T08:23:04.938Z,82.29
2022-12-01T08:28:07.143Z,81.49
2022-12-01T08:33:09.241Z,81.20
2022-12-01T08:38:12.242Z,80.51
2022-12-01T08:43:34.796Z,79.57
2022-12-01T08:48:36.865Z,78.85
2022-12-01T08:53:45.524Z,77.95
2022-12-01T08:58:48.057Z,77.56
2022-12-01T09:04:05.647Z,76.58
2022-12-01T09:09:12.561Z,75.59
2022-12-01T09:14:16.927Z,74.69
2022-12-01T09:19:23.956Z,74.22
2022-12-01T09:24:26.650Z,73.53
2022-12-01T09:29:29.355Z,72.60
2022-12-01T09:34:31.552Z,71.19
2022-12-01T09:39:33.734Z,68.85
2022-12-01T09:44:44.044Z,58.17
2022-12-01T09:50:06.961Z,60.54
2022-12-01T09:55:13.744Z,59.84
2022-12-01T10:00:21.131Z,51.19
2022-12-01T10:05:26.858Z,44.40
2022-12-01T10:10:34.547Z,40.07
2022-12-01T10:16:08.835Z,38.75
2022-12-01T10:21:40.155Z,36.07
2022-12-01T10:27:04.105Z,36.66
2022-12-01T10:32:20.563Z,33.14
2022-12-01T10:37:26.380Z,32.78
2022-12-01T10:42:36.862Z,30.84
2022-12-01T10:48:15.915Z,31.00
2022-12-01T10:53:28.288Z,26.41
2022-12-01T10:58:33.857Z,23.54
2022-12-01T11:03:36.942Z,24.54
2022-12-01T11:08:40.668Z,22.91
2022-12-01T11:13:43.375Z,25.54
2022-12-01T11:18:45.514Z,20.86
2022-12-01T11:23:50.568Z,19.50
2022-12-01T11:29:04.742Z,19.93
2022-12-01T11:34:20.652Z,22.04
2022-12-01T11:39:25.510Z,28.98
2022-12-01T11:44:50.356Z,31.67
2022-12-01T11:50:00.076Z,29.78
2022-12-01T11:55:11.166Z,31.85
2022-12-01T12:00:13.860Z,29.25
2022-12-01T12:05:40.374Z,29.05
2022-12-01T12:11:19.452Z,26.39
2022-12-01T12:16:56.752Z,30.02
2022-12-01T12:22:10.962Z,33.09
2022-12-01T12:27:34.886Z,32.72
2022-12-01T12:33:04.309Z,35.18
2022-12-01T12:38:15.457Z,28.82
2022-12-01T12:43:56.668Z,23.57
2022-12-01T12:49:25.668Z,28.47
2022-12-01T12:54:33.809Z,31.38
2022-12-01T12:59:52.009Z,32.87
2022-12-01T13:05:16.857Z,34.31
2022-12-01T13:10:35.740Z,34.95
2022-12-01T13:15:39.093Z,33.71
2022-12-01T13:20:41.727Z,35.58
2022-12-01T13:25:47.842Z,36.13
2022-12-01T13:31:18.184Z,36.73
2022-12-01T13:36:45.721Z,41.53
2022-12-01T13:41:45.468Z,44.79
2022-12-01T13:46:47.613Z,45.56
2022-12-01T13:52:21.077Z,45.49
2022-12-01T13:57:27.805Z,46.34
2022-12-01T14:02:33.141Z,45.02
2022-12-01T14:07:38.321Z,45.83
2022-12-01T14:12:46.020Z,46.38
2022-12-01T14:17:58.391Z,47.64
2022-12-01T14:23:36.223Z,49.43
2022-12-01T14:29:01.491Z,50.97
2022-12-01T14:34:13.155Z,53.55
2022-12-01T14:39:35.174Z,55.31
2022-12-01T14:44:49.797Z,57.32
2022-12-01T14:50:11.897Z,58.58
2022-12-01T14:55:21.151Z,60.24
2022-12-01T15:00:25.116Z,61.92
2022-12-01T15:05:29.557Z,63.48
2022-12-01T15:10:37.191Z,63.92
2022-12-01T15:15:53.432Z,65.02
2022-12-01T15:21:03.940Z,65.05
2022-12-01T15:26:06.989Z,65.73
2022-12-01T15:31:13.092Z,66.16
2022-12-01T15:36:15.766Z,66.22
2022-12-01T15:41:30.663Z,66.21
2022-12-01T15:46:36.970Z,65.80
2022-12-01T15:51:39.084Z,66.41
2022-12-01T15:56:41.461Z,66.75
2022-12-01T16:01:44.665Z,67.46
2022-12-01T16:07:16.038Z,68.04
2022-12-01T16:12:18.063Z,68.78
2022-12-01T16:17:20.835Z,69.25
2022-12-01T16:22:23.139Z,69.38
2022-12-01T16:27:30.385Z,69.95
2022-12-01T16:32:35.155Z,70.08
2022-12-01T16:37:37.253Z,70.11
2022-12-01T16:42:39.733Z,70.56
2022-12-01T16:47:42.719Z,71.23
2022-12-01T16:52:45.892Z,71.61
2022-12-01T16:57:48.296Z,71.73
2022-12-01T17:02:51.016Z,71.55
2022-12-01T17:07:53.466Z,71.56
2022-12-01T17:12:55.612Z,71.87
2022-12-01T17:17:57.736Z,72.10
2022-12-01T17:22:59.885Z,72.34
2022-12-01T17:28:02.027Z,73.02
2022-12-01T17:33:04.305Z,73.63
2022-12-01T17:38:06.860Z,74.38
2022-12-01T17:43:09.333Z,74.71
2022-12-01T17:48:11.425Z,75.24
2022-12-01T17:53:13.574Z,76.15
2022-12-01T17:58:18.215Z,76.84
2022-12-01T18:03:21.407Z,77.82
2022-12-01T18:08:25.552Z,78.38
2022-12-01T18:13:27.969Z,78.29
2022-12-01T18:18:30.133Z,78.58
2022-12-01T18:23:32.378Z,78.90
2022-12-01T18:28:35.136Z,79.21
2022-12-01T18:33:40.242Z,79.56
2022-12-01T18:38:42.328Z,80.00
2022-12-01T18:43:45.102Z,80.03
2022-12-01T18:48:49.457Z,79.04
2022-12-01T18:53:54.614Z,78.32
2022-12-01T18:58:58.760Z,78.18
2022-12-01T19:04:02.066Z,78.54
2022-12-01T19:09:06.301Z,79.25
2022-12-01T19:14:16.425Z,83.05
2022-12-01T19:19:18.776Z,84.09
2022-12-01T19:24:20.999Z,82.36
2022-12-01T19:29:23.262Z,80.67
2022-12-01T19:34:26.072Z,81.95
2022-12-01T19:39:28.428Z,80.73
2022-12-01T19:44:31.837Z,79.74
2022-12-01T19:49:36.547Z,80.48
2022-12-01T19:54:39.292Z,81.47
2022-12-01T19:59:41.536Z,82.16
2022-12-01T20:04:43.773Z,82.58
2022-12-01T20:09:49.910Z,83.05
2022-12-01T20:14:52.716Z,83.39
2022-12-01T20:19:55.203Z,83.90
2022-12-01T20:24:57.344Z,84.34
2022-12-01T20:29:59.857Z,84.87
2022-12-01T20:35:02.055Z,85.79
2022-12-01T20:40:04.665Z,86.38
2022-12-01T20:45:07.527Z,86.71
2022-12-01T20:50:10.269Z,87.19
2022-12-01T20:55:12.388Z,87.60
2022-12-01T21:00:15.067Z,88.19
2022-12-01T21:05:17.231Z,88.63
2022-12-01T21:10:20.358Z,88.87
2022-12-01T21:15:31.411Z,89.07
2022-12-01T21:20:39.312Z,89.28
2022-12-01T21:25:42.610Z,89.88
2022-12-01T21:30:46.334Z,89.98
2022-12-01T21:35:51.761Z,89.96
2022-12-01T21:40:54.250Z,90.06
2022-12-01T21:46:00.718Z,90.61
2022-12-01T21:51:12.178Z,90.90
2022-12-01T21:56:34.521Z,90.92
2022-12-01T22:01:36.837Z,91.18
2022-12-01T22:06:43.250Z,91.33
2022-12-01T22:11:49.371Z,91.54
2022-12-01T22:17:09.134Z,91.01
2022-12-01T22:22:11.688Z,90.81
2022-12-01T22:27:39.276Z,90.30
2022-12-01T22:32:56.193Z,89.47
2022-12-01T22:37:59.828Z,88.92
2022-12-01T22:43:17.274Z,88.46
2022-12-01T22:48:22.263Z,87.66
2022-12-01T22:53:31.317Z,87.30
2022-12-01T22:58:39.838Z,86.57
2022-12-01T23:03:41.919Z,85.99
2022-12-01T23:08:44.017Z,85.74
2022-12-01T23:13:46.091Z,85.53
2022-12-01T23:18:48.139Z,85.31
2022-12-01T23:23:50.259Z,84.98
2022-12-01T23:28:52.339Z,84.50
2022-12-01T23:33:54.488Z,84.18
2022-12-01T23:39:01.446Z,83.97
2022-12-01T23:44:40.731Z,84.04
2022-12-01T23:49:44.785Z,83.94
2022-12-01T23:54:47.403Z,83.81
2022-12-01T23:59:56.298Z,83.80
